Zim California — 4XIS — position and weather

sailwx.info

Track history (hours):
 
Tides and Currents Weather Stations Pressure Air Temp Water Temp Dewpoint Dewpoint Depression Visibility Wind Speed Wind Dir Waves Ship Positions

Zim California

Last reported at 2018-Feb-17 03:24 UTC. Time now 2018-Feb-20 23:42 UTC.
Position N 31°55' W 080°18'.

Type: Cargo ship. MMSI: 428010000.

Date/timePositionNaut miles runAvg speedWind from/ knotsBaromVisibWave heightAir tempDewpointWater temp
2018-Feb-17 03:24N 31°55' W 080°18'615.4
2018-Feb-17 03:00N 31°55' W 080°25'5 9.7
2018-Feb-17 02:30N 31°55' W 080°31'510.0
2018-Feb-17 02:00N 31°56' W 080°37'5 9.2
2018-Feb-17 01:30N 31°58' W 080°42'510.7
2018-Feb-17 01:00N 31°60' W 080°47'611.5
2018-Feb-17 00:30N 32°02' W 080°54'5 9.8
2018-Feb-17 00:00N 32°05' W 080°59'4 7.6
2018-Feb-16 23:30N 32°05' W 081°03'3 6.8
2018-Feb-16 23:00N 32°06' W 081°07'2 4.0
2018-Feb-16 22:27N 32°08' W 081°08'1 1.5
2018-Feb-16 22:00N 32°07' W 081°08'0 0.0
2018-Feb-16 21:30N 32°07' W 081°08'0 0.0
2018-Feb-16 21:00N 32°07' W 081°08'0 0.0
2018-Feb-16 20:30N 32°07' W 081°08'0 0.0
2018-Feb-16 20:00N 32°07' W 081°08'0 0.0
2018-Feb-16 19:30N 32°07' W 081°08'0 0.0
2018-Feb-16 19:00N 32°07' W 081°08'0 0.0
2018-Feb-16 18:30N 32°07' W 081°08'0 0.0
2018-Feb-16 18:00N 32°07' W 081°08'0 0.0
2018-Feb-16 17:30N 32°07' W 081°08'0 0.0
2018-Feb-16 17:00N 32°07' W 081°08'0 0.0
2018-Feb-16 16:18N 32°07' W 081°08'0 0.0
2018-Feb-16 16:00N 32°07' W 081°08'0 0.0
2018-Feb-16 15:30N 32°07' W 081°08'0 0.0
2018-Feb-16 15:00N 32°07' W 081°08'0 0.0
2018-Feb-16 14:30N 32°07' W 081°08'0 0.0
2018-Feb-16 14:00N 32°07' W 081°08'0 0.0
2018-Feb-16 13:30N 32°07' W 081°08'0 0.0
2018-Feb-16 13:00N 32°07' W 081°08'0 0.0
2018-Feb-16 12:30N 32°07' W 081°08'0 0.0
2018-Feb-16 11:48N 32°07' W 081°08'0 0.0
2018-Feb-16 11:18N 32°07' W 081°08'0 0.0
2018-Feb-16 11:00N 32°07' W 081°08'0 0.0
2018-Feb-16 10:30N 32°07' W 081°08'0 0.0
2018-Feb-16 10:00N 32°07' W 081°08'0 0.0
2018-Feb-16 09:30N 32°07' W 081°08'0 0.0
2018-Feb-16 08:54N 32°07' W 081°08'0 0.0
2018-Feb-16 08:30N 32°07' W 081°08'0 0.0
2018-Feb-16 07:54N 32°07' W 081°08'0 0.0
2018-Feb-16 07:24N 32°07' W 081°08'0 0.0
2018-Feb-16 07:00N 32°07' W 081°08'0 0.0
2018-Feb-16 06:30N 32°07' W 081°08'0 0.0
2018-Feb-16 06:00N 32°07' W 081°08'0 0.0
2018-Feb-16 05:24N 32°07' W 081°08'0 0.0
2018-Feb-16 04:48N 32°07' W 081°08'0 0.0
2018-Feb-16 04:30N 32°07' W 081°08'0 0.0
2018-Feb-16 04:00N 32°07' W 081°08'0 0.0
2018-Feb-16 03:30N 32°07' W 081°08'0 0.0
2018-Feb-16 03:00N 32°07' W 081°08'0 0.0
2018-Feb-16 02:30N 32°07' W 081°08'0 0.0
2018-Feb-16 02:00N 32°07' W 081°08'0 0.0
2018-Feb-16 01:30N 32°07' W 081°08'0 0.0
2018-Feb-16 01:00N 32°07' W 081°08'0 0.0
2018-Feb-16 00:24N 32°07' W 081°08'0 0.0
2018-Feb-16 00:00N 32°07' W 081°08'0 0.0
2018-Feb-15 23:18N 32°07' W 081°08'0 0.0
2018-Feb-15 23:00N 32°07' W 081°08'0 0.0
2018-Feb-15 22:30N 32°07' W 081°08'0 0.0
2018-Feb-15 22:00N 32°07' W 081°08'0 0.0
2018-Feb-15 21:30N 32°07' W 081°08'0 0.0
2018-Feb-15 21:00N 32°07' W 081°08'0 0.1
2018-Feb-15 20:30N 32°07' W 081°08'0 0.0
2018-Feb-15 20:00N 32°07' W 081°08'0 0.0
2018-Feb-15 19:30N 32°07' W 081°08'0 0.0
2018-Feb-15 19:00N 32°07' W 081°08'0 0.0
2018-Feb-15 18:30N 32°07' W 081°08'0 0.0
2018-Feb-15 18:00N 32°07' W 081°08'0 0.0
2018-Feb-15 17:30N 32°07' W 081°08'0 0.0
2018-Feb-15 17:00N 32°07' W 081°08'0 0.0
2018-Feb-15 16:30N 32°07' W 081°08'0 0.0
2018-Feb-15 16:00N 32°07' W 081°08'0 0.0
2018-Feb-15 15:30N 32°07' W 081°08'0 0.0
2018-Feb-15 14:48N 32°07' W 081°08'0 0.0
2018-Feb-15 14:30N 32°07' W 081°08'0 0.0
2018-Feb-15 14:00N 32°07' W 081°08'0 0.0
2018-Feb-15 13:30N 32°07' W 081°08'0 0.0
2018-Feb-15 13:00N 32°07' W 081°08'0 0.0
2018-Feb-15 12:30N 32°07' W 081°08'0 0.0
2018-Feb-15 11:54N 32°07' W 081°08'0 0.0
2018-Feb-15 11:30N 32°07' W 081°08'0 0.4
2018-Feb-15 11:00N 32°07' W 081°08'4 7.0
2018-Feb-15 10:30N 32°05' W 081°05'2 4.8
2018-Feb-15 10:00N 32°05' W 081°02'3 6.8
2018-Feb-15 09:30N 32°04' W 080°58'5 9.9
2018-Feb-15 09:00N 32°02' W 080°53'713.6
2018-Feb-15 08:30N 31°59' W 080°46'611.0
2018-Feb-15 08:00N 31°58' W 080°40'4 7.6
2018-Feb-15 07:30N 31°58' W 080°35'3 3.0
2018-Feb-15 06:21N 31°59' W 080°31'0 0.2
2018-Feb-15 05:57N 31°59' W 080°31'0 0.1
2018-Feb-15 04:51N 31°59' W 080°31'0 0.0
2018-Feb-15 04:27N 31°59' W 080°31'0 0.0
2018-Feb-15 03:45N 31°59' W 080°31'0 0.0
2018-Feb-15 03:21N 31°59' W 080°31'0 0.0
2018-Feb-15 02:51N 31°59' W 080°31'0 0.0
2018-Feb-15 02:27N 31°59' W 080°31'0 0.1
2018-Feb-15 01:57N 31°59' W 080°31'0 0.1
2018-Feb-14 22:45N 31°59' W 080°31'0 0.0
2018-Feb-14 21:45N 31°59' W 080°31'0 0.0
2018-Feb-14 21:27N 31°59' W 080°31'0 0.0
2018-Feb-14 20:45N 31°59' W 080°31'0 0.0
2018-Feb-14 20:27N 31°59' W 080°31'0 0.0
2018-Feb-14 19:51N 31°59' W 080°31'0 0.0
2018-Feb-14 19:21N 31°59' W 080°31'0 0.0
2018-Feb-14 18:57N 31°59' W 080°31'0 0.1
2018-Feb-14 17:51N 31°59' W 080°31'0 0.1
2018-Feb-14 17:21N 31°59' W 080°31'0 0.1
2018-Feb-14 16:51N 31°59' W 080°31'0 0.0
2018-Feb-14 16:21N 31°59' W 080°31'0 0.0
2018-Feb-14 15:51N 31°59' W 080°31'0 0.0
2018-Feb-14 15:21N 31°59' W 080°31'0 0.1
2018-Feb-14 14:57N 31°59' W 080°31'0 0.1
2018-Feb-14 14:03N 31°59' W 080°31'0 0.0
2018-Feb-14 13:51N 31°59' W 080°31'0 0.0
2018-Feb-14 13:21N 31°59' W 080°31'0 0.2
2018-Feb-14 12:51N 31°59' W 080°31'0 0.1
2018-Feb-14 12:27N 31°59' W 080°31'0 0.0
2018-Feb-14 11:57N 31°59' W 080°31'0 0.1
2018-Feb-14 11:27N 31°59' W 080°31'0 0.0
2018-Feb-14 09:21N 31°59' W 080°31'0 0.0
2018-Feb-14 08:51N 31°59' W 080°31'0 0.0
2018-Feb-14 07:57N 31°59' W 080°31'0 0.0
2018-Feb-14 07:09N 31°59' W 080°31'0 0.2
2018-Feb-14 06:57N 31°59' W 080°31'0 0.2
2018-Feb-14 06:19N 31°59' W 080°31'1 3.3
2018-Feb-14 06:00N 31°58' W 080°30'5 8.5
2018-Feb-14 05:27N 31°58' W 080°25'4 9.6
2018-Feb-14 05:01N 31°59' W 080°20'612.3
2018-Feb-14 04:30N 32°01' W 080°13'612.9
2018-Feb-14 04:00N 32°04' W 080°06'16510.2
2018-Feb-13 11:45N 34°09' W 077°57'2 7.1
2018-Feb-13 11:28N 34°11' W 077°57'1 3.0
2018-Feb-13 11:01N 34°13' W 077°57'1 2.2
2018-Feb-13 10:28N 34°11' W 077°57'0 0.0
2018-Feb-13 09:58N 34°11' W 077°57'0 0.0
2018-Feb-13 09:28N 34°11' W 077°57'0 0.0
2018-Feb-13 08:58N 34°11' W 077°57'0 0.0
2018-Feb-13 08:28N 34°11' W 077°57'0 0.0
2018-Feb-13 07:58N 34°11' W 077°57'0 0.0
2018-Feb-13 07:28N 34°11' W 077°57'0 0.0
2018-Feb-13 06:34N 34°11' W 077°57'0 0.0
2018-Feb-13 06:28N 34°11' W 077°57'0 0.0
2018-Feb-13 05:58N 34°11' W 077°57'0 0.0
2018-Feb-13 05:28N 34°11' W 077°57'0 0.0
2018-Feb-13 04:58N 34°11' W 077°57'0 0.0
2018-Feb-13 04:10N 34°11' W 077°57'0 0.0
2018-Feb-13 03:58N 34°11' W 077°57'0 0.0
2018-Feb-13 03:28N 34°11' W 077°57'0 0.0
2018-Feb-13 02:58N 34°11' W 077°57'0 0.0
2018-Feb-13 02:28N 34°11' W 077°57'0 0.0
2018-Feb-13 01:58N 34°11' W 077°57'0 0.0
2018-Feb-13 01:19N 34°11' W 077°57'0 0.0
2018-Feb-13 00:58N 34°11' W 077°57'0 0.0
2018-Feb-13 00:28N 34°11' W 077°57'0 0.0
2018-Feb-12 23:58N 34°11' W 077°57'0 0.0
2018-Feb-12 23:28N 34°11' W 077°57'0 0.0
2018-Feb-12 22:58N 34°11' W 077°57'0 0.0
2018-Feb-12 22:28N 34°11' W 077°57'0 0.0
2018-Feb-12 21:58N 34°11' W 077°57'0 0.0
2018-Feb-12 21:28N 34°11' W 077°57'0 0.0
2018-Feb-12 21:00N 34°11' W 077°57'2 4.2
2018-Feb-12 20:31N 34°09' W 077°57'91 4.9
2018-Feb-12 01:52N 34°18' W 076°08'1514.2
2018-Feb-12 00:48N 34°28' W 075°54'714.5
2018-Feb-12 00:20N 34°32' W 075°48'13911.8
2018-Feb-11 12:33N 36°51' W 075°50'110.1
2018-Feb-11 12:27N 36°51' W 075°52'4 9.8
2018-Feb-11 12:00N 36°54' W 075°55'5 9.6
2018-Feb-11 11:30N 36°57' W 076°01'612.2
2018-Feb-11 11:00N 36°59' W 076°08'713.3
2018-Feb-11 10:28N 37°00' W 076°16'510.6
2018-Feb-11 10:00N 36°56' W 076°20'4 8.7
2018-Feb-11 09:30N 36°52' W 076°20'1 1.1
2018-Feb-11 08:59N 36°51' W 076°19'0 0.0
2018-Feb-11 08:29N 36°51' W 076°19'0 0.0
2018-Feb-11 07:59N 36°51' W 076°19'0 0.0
2018-Feb-11 07:29N 36°51' W 076°19'0 0.0
2018-Feb-11 06:59N 36°51' W 076°19'0 0.0
2018-Feb-11 06:29N 36°51' W 076°19'0 0.0
2018-Feb-11 05:59N 36°51' W 076°19'0 0.0
2018-Feb-11 05:29N 36°51' W 076°19'0 0.0
2018-Feb-11 04:59N 36°51' W 076°19'0 0.0
2018-Feb-11 04:29N 36°51' W 076°19'0 0.0
2018-Feb-11 03:59N 36°51' W 076°19'0 0.0
2018-Feb-11 03:29N 36°51' W 076°19'0 0.0
2018-Feb-11 02:59N 36°51' W 076°19'0 0.0
2018-Feb-11 02:29N 36°51' W 076°19'0 0.0
2018-Feb-11 01:59N 36°51' W 076°19'0 0.0
2018-Feb-11 01:29N 36°51' W 076°19'0 0.0
2018-Feb-11 00:59N 36°51' W 076°19'0 0.0
2018-Feb-11 00:29N 36°51' W 076°19'0 0.0
2018-Feb-10 23:59N 36°51' W 076°19'0 0.0
2018-Feb-10 23:29N 36°51' W 076°19'0 0.0
2018-Feb-10 22:59N 36°51' W 076°19'0 0.0
2018-Feb-10 22:29N 36°51' W 076°19'0 0.1
2018-Feb-10 21:59N 36°51' W 076°19'0 0.0
2018-Feb-10 21:29N 36°51' W 076°19'0 0.0
2018-Feb-10 20:59N 36°51' W 076°19'0 0.0
2018-Feb-10 20:29N 36°51' W 076°19'0 0.0
2018-Feb-10 19:59N 36°51' W 076°19'0 0.0
2018-Feb-10 19:29N 36°51' W 076°19'0 0.0
2018-Feb-10 18:59N 36°51' W 076°19'0 0.0
2018-Feb-10 18:29N 36°51' W 076°19'0 0.0
2018-Feb-10 17:59N 36°51' W 076°19'0 0.0
2018-Feb-10 17:29N 36°51' W 076°19'0 0.0
2018-Feb-10 17:00N 36°51' W 076°19'1 2.7
2018-Feb-10 16:30N 36°53' W 076°20'4 8.5
2018-Feb-10 16:00N 36°57' W 076°20'4 8.6
2018-Feb-10 15:30N 37°00' W 076°17'612.0
2018-Feb-10 15:00N 36°59' W 076°09'714.1
2018-Feb-10 14:30N 36°57' W 076°01'5 9.2
2018-Feb-10 14:00N 36°56' W 075°56'3 6.7
2018-Feb-10 13:30N 36°53' W 075°53'4 6.8
2018-Feb-10 12:58N 36°51' W 075°49'3 5.5
2018-Feb-10 12:21N 36°50' W 075°45'243 5.0
2018-Feb-08 11:30N 40°41' W 074°09'0 0.0
2018-Feb-08 11:00N 40°41' W 074°09'0 0.0
2018-Feb-08 10:00N 40°41' W 074°09'0 0.0
2018-Feb-08 09:30N 40°41' W 074°09'0 0.0
2018-Feb-08 09:00N 40°41' W 074°09'0 0.0
2018-Feb-08 08:30N 40°41' W 074°09'0 0.0
2018-Feb-08 08:00N 40°41' W 074°09'0 0.0
2018-Feb-08 07:30N 40°41' W 074°09'0 0.0
2018-Feb-08 07:00N 40°41' W 074°09'0 0.0
2018-Feb-08 06:00N 40°41' W 074°09'0 0.0
2018-Feb-08 05:00N 40°41' W 074°09'0 0.0
2018-Feb-08 04:30N 40°41' W 074°09'0 0.0
2018-Feb-08 04:00N 40°41' W 074°09'0 0.0
2018-Feb-08 03:30N 40°41' W 074°09'0 0.0
2018-Feb-08 03:00N 40°41' W 074°09'0 0.0
2018-Feb-08 02:30N 40°41' W 074°09'0 0.0
2018-Feb-08 02:00N 40°41' W 074°09'0 0.0
2018-Feb-08 01:30N 40°41' W 074°09'0 0.0
2018-Feb-08 01:00N 40°41' W 074°09'0 0.0
2018-Feb-08 00:30N 40°41' W 074°09'0 0.0
2018-Feb-08 00:00N 40°41' W 074°09'0 0.0
2018-Feb-07 23:27N 40°41' W 074°09'0 0.4
2018-Feb-07 23:00N 40°41' W 074°09'2 3.2
2018-Feb-07 22:30N 40°39' W 074°09'2 4.8
2018-Feb-07 22:00N 40°39' W 074°06'3 5.5
2018-Feb-07 21:31N 40°37' W 074°03'  
Track history (hours):
 
Tides and Currents Weather Stations Pressure Air Temp Water Temp Dewpoint Dewpoint Depression Visibility Wind Speed Wind Dir Waves Ship Positions

Zim California

Last reported at 2018-Feb-17 03:24 UTC. Time now 2018-Feb-20 23:42 UTC.
Position N 31°55' W 080°18'.

Type: Cargo ship. MMSI: 428010000.

Date/timePositionNaut miles runAvg speedWind from/ knotsBaromVisibWave heightAir tempDewpointWater temp
2018-Feb-17 03:24N 31°55' W 080°18'615.4
2018-Feb-17 03:00N 31°55' W 080°25'5 9.7
2018-Feb-17 02:30N 31°55' W 080°31'510.0
2018-Feb-17 02:00N 31°56' W 080°37'5 9.2
2018-Feb-17 01:30N 31°58' W 080°42'510.7
2018-Feb-17 01:00N 31°60' W 080°47'611.5
2018-Feb-17 00:30N 32°02' W 080°54'5 9.8
2018-Feb-17 00:00N 32°05' W 080°59'4 7.6
2018-Feb-16 23:30N 32°05' W 081°03'3 6.8
2018-Feb-16 23:00N 32°06' W 081°07'2 4.0
2018-Feb-16 22:27N 32°08' W 081°08'1 1.5
2018-Feb-16 22:00N 32°07' W 081°08'0 0.0
2018-Feb-16 21:30N 32°07' W 081°08'0 0.0
2018-Feb-16 21:00N 32°07' W 081°08'0 0.0
2018-Feb-16 20:30N 32°07' W 081°08'0 0.0
2018-Feb-16 20:00N 32°07' W 081°08'0 0.0
2018-Feb-16 19:30N 32°07' W 081°08'0 0.0
2018-Feb-16 19:00N 32°07' W 081°08'0 0.0
2018-Feb-16 18:30N 32°07' W 081°08'0 0.0
2018-Feb-16 18:00N 32°07' W 081°08'0 0.0
2018-Feb-16 17:30N 32°07' W 081°08'0 0.0
2018-Feb-16 17:00N 32°07' W 081°08'0 0.0
2018-Feb-16 16:18N 32°07' W 081°08'0 0.0
2018-Feb-16 16:00N 32°07' W 081°08'0 0.0
2018-Feb-16 15:30N 32°07' W 081°08'0 0.0
2018-Feb-16 15:00N 32°07' W 081°08'0 0.0
2018-Feb-16 14:30N 32°07' W 081°08'0 0.0
2018-Feb-16 14:00N 32°07' W 081°08'0 0.0
2018-Feb-16 13:30N 32°07' W 081°08'0 0.0
2018-Feb-16 13:00N 32°07' W 081°08'0 0.0
2018-Feb-16 12:30N 32°07' W 081°08'0 0.0
2018-Feb-16 11:48N 32°07' W 081°08'0 0.0
2018-Feb-16 11:18N 32°07' W 081°08'0 0.0
2018-Feb-16 11:00N 32°07' W 081°08'0 0.0
2018-Feb-16 10:30N 32°07' W 081°08'0 0.0
2018-Feb-16 10:00N 32°07' W 081°08'0 0.0
2018-Feb-16 09:30N 32°07' W 081°08'0 0.0
2018-Feb-16 08:54N 32°07' W 081°08'0 0.0
2018-Feb-16 08:30N 32°07' W 081°08'0 0.0
2018-Feb-16 07:54N 32°07' W 081°08'0 0.0
2018-Feb-16 07:24N 32°07' W 081°08'0 0.0
2018-Feb-16 07:00N 32°07' W 081°08'0 0.0
2018-Feb-16 06:30N 32°07' W 081°08'0 0.0
2018-Feb-16 06:00N 32°07' W 081°08'0 0.0
2018-Feb-16 05:24N 32°07' W 081°08'0 0.0
2018-Feb-16 04:48N 32°07' W 081°08'0 0.0
2018-Feb-16 04:30N 32°07' W 081°08'0 0.0
2018-Feb-16 04:00N 32°07' W 081°08'0 0.0
2018-Feb-16 03:30N 32°07' W 081°08'0 0.0
2018-Feb-16 03:00N 32°07' W 081°08'0 0.0
2018-Feb-16 02:30N 32°07' W 081°08'0 0.0
2018-Feb-16 02:00N 32°07' W 081°08'0 0.0
2018-Feb-16 01:30N 32°07' W 081°08'0 0.0
2018-Feb-16 01:00N 32°07' W 081°08'0 0.0
2018-Feb-16 00:24N 32°07' W 081°08'0 0.0
2018-Feb-16 00:00N 32°07' W 081°08'0 0.0
2018-Feb-15 23:18N 32°07' W 081°08'0 0.0
2018-Feb-15 23:00N 32°07' W 081°08'0 0.0
2018-Feb-15 22:30N 32°07' W 081°08'0 0.0
2018-Feb-15 22:00N 32°07' W 081°08'0 0.0
2018-Feb-15 21:30N 32°07' W 081°08'0 0.0
2018-Feb-15 21:00N 32°07' W 081°08'0 0.1
2018-Feb-15 20:30N 32°07' W 081°08'0 0.0
2018-Feb-15 20:00N 32°07' W 081°08'0 0.0
2018-Feb-15 19:30N 32°07' W 081°08'0 0.0
2018-Feb-15 19:00N 32°07' W 081°08'0 0.0
2018-Feb-15 18:30N 32°07' W 081°08'0 0.0
2018-Feb-15 18:00N 32°07' W 081°08'0 0.0
2018-Feb-15 17:30N 32°07' W 081°08'0 0.0
2018-Feb-15 17:00N 32°07' W 081°08'0 0.0
2018-Feb-15 16:30N 32°07' W 081°08'0 0.0
2018-Feb-15 16:00N 32°07' W 081°08'0 0.0
2018-Feb-15 15:30N 32°07' W 081°08'0 0.0
2018-Feb-15 14:48N 32°07' W 081°08'0 0.0
2018-Feb-15 14:30N 32°07' W 081°08'0 0.0
2018-Feb-15 14:00N 32°07' W 081°08'0 0.0
2018-Feb-15 13:30N 32°07' W 081°08'0 0.0
2018-Feb-15 13:00N 32°07' W 081°08'0 0.0
2018-Feb-15 12:30N 32°07' W 081°08'0 0.0
2018-Feb-15 11:54N 32°07' W 081°08'0 0.0
2018-Feb-15 11:30N 32°07' W 081°08'0 0.4
2018-Feb-15 11:00N 32°07' W 081°08'4 7.0
2018-Feb-15 10:30N 32°05' W 081°05'2 4.8
2018-Feb-15 10:00N 32°05' W 081°02'3 6.8
2018-Feb-15 09:30N 32°04' W 080°58'5 9.9
2018-Feb-15 09:00N 32°02' W 080°53'713.6
2018-Feb-15 08:30N 31°59' W 080°46'611.0
2018-Feb-15 08:00N 31°58' W 080°40'4 7.6
2018-Feb-15 07:30N 31°58' W 080°35'3 3.0
2018-Feb-15 06:21N 31°59' W 080°31'0 0.2
2018-Feb-15 05:57N 31°59' W 080°31'0 0.1
2018-Feb-15 04:51N 31°59' W 080°31'0 0.0
2018-Feb-15 04:27N 31°59' W 080°31'0 0.0
2018-Feb-15 03:45N 31°59' W 080°31'0 0.0
2018-Feb-15 03:21N 31°59' W 080°31'0 0.0
2018-Feb-15 02:51N 31°59' W 080°31'0 0.0
2018-Feb-15 02:27N 31°59' W 080°31'0 0.1
2018-Feb-15 01:57N 31°59' W 080°31'0 0.1
2018-Feb-14 22:45N 31°59' W 080°31'0 0.0
2018-Feb-14 21:45N 31°59' W 080°31'0 0.0
2018-Feb-14 21:27N 31°59' W 080°31'0 0.0
2018-Feb-14 20:45N 31°59' W 080°31'0 0.0
2018-Feb-14 20:27N 31°59' W 080°31'0 0.0
2018-Feb-14 19:51N 31°59' W 080°31'0 0.0
2018-Feb-14 19:21N 31°59' W 080°31'0 0.0
2018-Feb-14 18:57N 31°59' W 080°31'0 0.1
2018-Feb-14 17:51N 31°59' W 080°31'0 0.1
2018-Feb-14 17:21N 31°59' W 080°31'0 0.1
2018-Feb-14 16:51N 31°59' W 080°31'0 0.0
2018-Feb-14 16:21N 31°59' W 080°31'0 0.0
2018-Feb-14 15:51N 31°59' W 080°31'0 0.0
2018-Feb-14 15:21N 31°59' W 080°31'0 0.1
2018-Feb-14 14:57N 31°59' W 080°31'0 0.1
2018-Feb-14 14:03N 31°59' W 080°31'0 0.0
2018-Feb-14 13:51N 31°59' W 080°31'0 0.0
2018-Feb-14 13:21N 31°59' W 080°31'0 0.2
2018-Feb-14 12:51N 31°59' W 080°31'0 0.1
2018-Feb-14 12:27N 31°59' W 080°31'0 0.0
2018-Feb-14 11:57N 31°59' W 080°31'0 0.1
2018-Feb-14 11:27N 31°59' W 080°31'0 0.0
2018-Feb-14 09:21N 31°59' W 080°31'0 0.0
2018-Feb-14 08:51N 31°59' W 080°31'0 0.0
2018-Feb-14 07:57N 31°59' W 080°31'0 0.0
2018-Feb-14 07:09N 31°59' W 080°31'0 0.2
2018-Feb-14 06:57N 31°59' W 080°31'0 0.2
2018-Feb-14 06:19N 31°59' W 080°31'1 3.3
2018-Feb-14 06:00N 31°58' W 080°30'5 8.5
2018-Feb-14 05:27N 31°58' W 080°25'4 9.6
2018-Feb-14 05:01N 31°59' W 080°20'612.3
2018-Feb-14 04:30N 32°01' W 080°13'612.9
2018-Feb-14 04:00N 32°04' W 080°06'16510.2
2018-Feb-13 11:45N 34°09' W 077°57'2 7.1
2018-Feb-13 11:28N 34°11' W 077°57'1 3.0
2018-Feb-13 11:01N 34°13' W 077°57'1 2.2
2018-Feb-13 10:28N 34°11' W 077°57'0 0.0
2018-Feb-13 09:58N 34°11' W 077°57'0 0.0
2018-Feb-13 09:28N 34°11' W 077°57'0 0.0
2018-Feb-13 08:58N 34°11' W 077°57'0 0.0
2018-Feb-13 08:28N 34°11' W 077°57'0 0.0
2018-Feb-13 07:58N 34°11' W 077°57'0 0.0
2018-Feb-13 07:28N 34°11' W 077°57'0 0.0
2018-Feb-13 06:34N 34°11' W 077°57'0 0.0
2018-Feb-13 06:28N 34°11' W 077°57'0 0.0
2018-Feb-13 05:58N 34°11' W 077°57'0 0.0
2018-Feb-13 05:28N 34°11' W 077°57'0 0.0
2018-Feb-13 04:58N 34°11' W 077°57'0 0.0
2018-Feb-13 04:10N 34°11' W 077°57'0 0.0
2018-Feb-13 03:58N 34°11' W 077°57'0 0.0
2018-Feb-13 03:28N 34°11' W 077°57'0 0.0
2018-Feb-13 02:58N 34°11' W 077°57'0 0.0
2018-Feb-13 02:28N 34°11' W 077°57'0 0.0
2018-Feb-13 01:58N 34°11' W 077°57'0 0.0
2018-Feb-13 01:19N 34°11' W 077°57'0 0.0
2018-Feb-13 00:58N 34°11' W 077°57'0 0.0
2018-Feb-13 00:28N 34°11' W 077°57'0 0.0
2018-Feb-12 23:58N 34°11' W 077°57'0 0.0
2018-Feb-12 23:28N 34°11' W 077°57'0 0.0
2018-Feb-12 22:58N 34°11' W 077°57'0 0.0
2018-Feb-12 22:28N 34°11' W 077°57'0 0.0
2018-Feb-12 21:58N 34°11' W 077°57'0 0.0
2018-Feb-12 21:28N 34°11' W 077°57'0 0.0
2018-Feb-12 21:00N 34°11' W 077°57'2 4.2
2018-Feb-12 20:31N 34°09' W 077°57'91 4.9
2018-Feb-12 01:52N 34°18' W 076°08'1514.2
2018-Feb-12 00:48N 34°28' W 075°54'714.5
2018-Feb-12 00:20N 34°32' W 075°48'13911.8
2018-Feb-11 12:33N 36°51' W 075°50'110.1
2018-Feb-11 12:27N 36°51' W 075°52'4 9.8
2018-Feb-11 12:00N 36°54' W 075°55'5 9.6
2018-Feb-11 11:30N 36°57' W 076°01'612.2
2018-Feb-11 11:00N 36°59' W 076°08'713.3
2018-Feb-11 10:28N 37°00' W 076°16'510.6
2018-Feb-11 10:00N 36°56' W 076°20'4 8.7
2018-Feb-11 09:30N 36°52' W 076°20'1 1.1
2018-Feb-11 08:59N 36°51' W 076°19'0 0.0
2018-Feb-11 08:29N 36°51' W 076°19'0 0.0
2018-Feb-11 07:59N 36°51' W 076°19'0 0.0
2018-Feb-11 07:29N 36°51' W 076°19'0 0.0
2018-Feb-11 06:59N 36°51' W 076°19'0 0.0
2018-Feb-11 06:29N 36°51' W 076°19'0 0.0
2018-Feb-11 05:59N 36°51' W 076°19'0 0.0
2018-Feb-11 05:29N 36°51' W 076°19'0 0.0
2018-Feb-11 04:59N 36°51' W 076°19'0 0.0
2018-Feb-11 04:29N 36°51' W 076°19'0 0.0
2018-Feb-11 03:59N 36°51' W 076°19'0 0.0
2018-Feb-11 03:29N 36°51' W 076°19'0 0.0
2018-Feb-11 02:59N 36°51' W 076°19'0 0.0
2018-Feb-11 02:29N 36°51' W 076°19'0 0.0
2018-Feb-11 01:59N 36°51' W 076°19'0 0.0
2018-Feb-11 01:29N 36°51' W 076°19'0 0.0
2018-Feb-11 00:59N 36°51' W 076°19'0 0.0
2018-Feb-11 00:29N 36°51' W 076°19'0 0.0
2018-Feb-10 23:59N 36°51' W 076°19'0 0.0
2018-Feb-10 23:29N 36°51' W 076°19'0 0.0
2018-Feb-10 22:59N 36°51' W 076°19'0 0.0
2018-Feb-10 22:29N 36°51' W 076°19'0 0.1
2018-Feb-10 21:59N 36°51' W 076°19'0 0.0
2018-Feb-10 21:29N 36°51' W 076°19'0 0.0
2018-Feb-10 20:59N 36°51' W 076°19'0 0.0
2018-Feb-10 20:29N 36°51' W 076°19'0 0.0
2018-Feb-10 19:59N 36°51' W 076°19'0 0.0
2018-Feb-10 19:29N 36°51' W 076°19'0 0.0
2018-Feb-10 18:59N 36°51' W 076°19'0 0.0
2018-Feb-10 18:29N 36°51' W 076°19'0 0.0
2018-Feb-10 17:59N 36°51' W 076°19'0 0.0
2018-Feb-10 17:29N 36°51' W 076°19'0 0.0
2018-Feb-10 17:00N 36°51' W 076°19'1 2.7
2018-Feb-10 16:30N 36°53' W 076°20'4 8.5
2018-Feb-10 16:00N 36°57' W 076°20'4 8.6
2018-Feb-10 15:30N 37°00' W 076°17'612.0
2018-Feb-10 15:00N 36°59' W 076°09'714.1
2018-Feb-10 14:30N 36°57' W 076°01'5 9.2
2018-Feb-10 14:00N 36°56' W 075°56'3 6.7
2018-Feb-10 13:30N 36°53' W 075°53'4 6.8
2018-Feb-10 12:58N 36°51' W 075°49'3 5.5
2018-Feb-10 12:21N 36°50' W 075°45'243 5.0
2018-Feb-08 11:30N 40°41' W 074°09'0 0.0
2018-Feb-08 11:00N 40°41' W 074°09'0 0.0
2018-Feb-08 10:00N 40°41' W 074°09'0 0.0
2018-Feb-08 09:30N 40°41' W 074°09'0 0.0
2018-Feb-08 09:00N 40°41' W 074°09'0 0.0
2018-Feb-08 08:30N 40°41' W 074°09'0 0.0
2018-Feb-08 08:00N 40°41' W 074°09'0 0.0
2018-Feb-08 07:30N 40°41' W 074°09'0 0.0
2018-Feb-08 07:00N 40°41' W 074°09'0 0.0
2018-Feb-08 06:00N 40°41' W 074°09'0 0.0
2018-Feb-08 05:00N 40°41' W 074°09'0 0.0
2018-Feb-08 04:30N 40°41' W 074°09'0 0.0
2018-Feb-08 04:00N 40°41' W 074°09'0 0.0
2018-Feb-08 03:30N 40°41' W 074°09'0 0.0
2018-Feb-08 03:00N 40°41' W 074°09'0 0.0
2018-Feb-08 02:30N 40°41' W 074°09'0 0.0
2018-Feb-08 02:00N 40°41' W 074°09'0 0.0
2018-Feb-08 01:30N 40°41' W 074°09'0 0.0
2018-Feb-08 01:00N 40°41' W 074°09'0 0.0
2018-Feb-08 00:30N 40°41' W 074°09'0 0.0
2018-Feb-08 00:00N 40°41' W 074°09'0 0.0
2018-Feb-07 23:27N 40°41' W 074°09'0 0.4
2018-Feb-07 23:00N 40°41' W 074°09'2 3.2
2018-Feb-07 22:30N 40°39' W 074°09'2 4.8
2018-Feb-07 22:00N 40°39' W 074°06'3 5.5
2018-Feb-07 21:31N 40°37' W 074°03'  

Dump ship's entire track history